Hollywood, FL (33023)

3:15 PM EST on December 06, 2016 (GMT -0500)
ISLAND DR. AREA | | Change Station

Elev 7 ft 25.99 °N, 80.24 °W | Updated 4 seconds ago

Mostly Cloudy
Mostly Cloudy
86.1 °F
Feels Like 95 °F
N
8.0
Wind Variable Wind from WSW
Gusts 16.0 mph

Today
High -- | Low -- °F
--% Chance of Precip.
Yesterday
High -- | Low -- °F
Precip. -- in
Pressure 29.90 in
Visibility 10.0 miles
Clouds Mostly Cloudy 3700 ft
Mostly Cloudy 5500 ft
Heat Index 95 °F
Dew Point 75 °F
Humidity 70%
Rainfall 0.00 in
Snow Depth Not available.
6:54 AM 5:29 PM
Waxing Crescent, 44% visible
METAR KFLL 061953Z 23013KT 10SM BKN037 BKN055 30/22 A2990 RMK AO2 SLP125 T03000222
Pressure 29.90 in
Visibility 10.0 miles
Clouds Mostly Cloudy 3700 ft
Mostly Cloudy 5500 ft
Heat Index 95 °F
Dew Point 75 °F
Humidity 70%
Rainfall 0.00 in
Snow Depth Not available.
6:54 AM 5:29 PM
Waxing Crescent, 44% visible
METAR KFLL 061953Z 23013KT 10SM BKN037 BKN055 30/22 A2990 RMK AO2 SLP125 T03000222

10-Day Weather Forecast

Almanac

Astronomy

Dec. 06, 2016 Rise Set
Actual Time
Civil Twilight
Nautical Twilight
Astronomical Twilight
Moon
Length of Visible Light
Length of Day
Tomorrow will be .
, % of the Moon is Illuminated

Today's Extremes

State Highs State Lows

Community

WunderPhotos

Upload Photos

1,956,022 photos uploaded!

WunderBlog® & News

Nearby

Air Quality

  Air Quality AQ Index Pollutant
Not available.

Snow Depth

Station Depth Elevation

Earthquake Activity

City Distance Mag. Time & Date
Minimum magnitude displayed is 2.5.

Coastal Water Temperatures

Place Temperature

Stations

Nearby Weather Stations

Station Location Temp. Windchill Dew Point Humidity Wind Precip. Elev Updated Type
                   

Watches & Warnings

There are currently no watches in effect.